Time;durP1;ratioP1;P1;durP2;ratioP2;P2;SDS_P1;SDS_P2;PMS_P1;PMS_P2;Temp;Humidity;BMP_temperature;BMP_pressure;BME280_temperature;BME280_humidity;BME280_pressure;Samples;Min_cycle;Max_cycle;Signal;HPM_P1;HPM_P2
2023/07/02 00:01:03;;;;;;;4.10;3.80;;;18.60;99.90;;;;;;5012543;28;20172;-67
2023/07/02 00:03:29;;;;;;;4.43;4.03;;;18.50;99.90;;;;;;5013098;28;20449;-67
2023/07/02 00:05:56;;;;;;;3.60;3.30;;;18.60;99.90;;;;;;5028323;28;20298;-67
2023/07/02 00:08:22;;;;;;;4.07;3.70;;;18.60;99.90;;;;;;5033143;28;20182;-67
2023/07/02 00:10:48;;;;;;;4.87;3.60;;;18.70;99.90;;;;;;5032823;28;20477;-66
2023/07/02 00:13:14;;;;;;;4.33;3.93;;;18.60;99.90;;;;;;5033337;28;20444;-67
2023/07/02 00:15:41;;;;;;;3.80;3.50;;;18.60;99.90;;;;;;5014986;28;20279;-67
2023/07/02 00:18:07;;;;;;;3.67;3.37;;;18.50;99.90;;;;;;5012852;28;20773;-66
2023/07/02 00:20:37;;;;;;;6.07;4.13;;;18.50;99.90;;;;;;5013063;28;20411;-67
2023/07/02 00:23:03;;;;;;;5.23;4.10;;;18.60;99.90;;;;;;5013249;28;20179;-67
2023/07/02 00:25:29;;;;;;;3.90;2.93;;;18.50;99.90;;;;;;5011658;28;20529;-67
2023/07/02 00:27:54;;;;;;;3.93;3.53;;;18.60;99.90;;;;;;5012954;28;20489;-67
2023/07/02 00:30:20;;;;;;;3.37;3.17;;;18.70;99.90;;;;;;5012943;28;20178;-67
2023/07/02 00:32:45;;;;;;;3.93;3.60;;;18.70;99.90;;;;;;5012914;28;20199;-67
2023/07/02 00:35:11;;;;;;;2.70;2.50;;;18.70;99.90;;;;;;5013850;28;20184;-67
2023/07/02 00:37:37;;;;;;;3.87;3.57;;;18.70;99.90;;;;;;5016923;28;20175;-67
2023/07/02 00:40:03;;;;;;;3.53;3.23;;;18.70;99.90;;;;;;5016610;28;20222;-67
2023/07/02 00:42:29;;;;;;;5.27;4.00;;;18.80;99.90;;;;;;5016541;28;20564;-67
2023/07/02 00:44:57;;;;;;;5.23;4.07;;;18.60;99.90;;;;;;5016418;28;20438;-67
2023/07/02 00:47:23;;;;;;;4.20;3.60;;;18.60;99.90;;;;;;5016244;28;20407;-67
2023/07/02 00:49:50;;;;;;;5.00;3.37;;;18.60;99.90;;;;;;5016447;28;20411;-67
2023/07/02 00:52:15;;;;;;;3.63;3.23;;;18.50;99.90;;;;;;5016407;28;20415;-67
2023/07/02 00:54:41;;;;;;;3.10;2.90;;;18.50;99.90;;;;;;5016338;28;20449;-66
2023/07/02 00:57:07;;;;;;;4.20;3.80;;;18.60;99.90;;;;;;5016606;28;20194;-67
2023/07/02 00:59:37;;;;;;;4.80;3.73;;;18.70;99.90;;;;;;5016465;28;20172;-67
2023/07/02 01:02:05;;;;;;;4.67;3.40;;;18.50;99.90;;;;;;5015541;28;20433;-67
2023/07/02 01:04:31;;;;;;;3.83;3.50;;;18.60;99.90;;;;;;5016451;28;20441;-67
2023/07/02 01:06:59;;;;;;;3.20;2.90;;;18.70;99.90;;;;;;5016135;28;20405;-67
2023/07/02 01:09:28;;;;;;;6.13;3.40;;;18.70;99.90;;;;;;5016402;28;20865;-67
2023/07/02 01:12:00;;;;;;;3.87;3.10;;;18.70;99.90;;;;;;5015993;28;20399;-67
2023/07/02 01:14:41;;;;;;;3.77;3.47;;;18.70;99.90;;;;;;5016108;28;20423;-67
2023/07/02 01:17:07;;;;;;;4.73;3.27;;;18.60;99.90;;;;;;5014206;28;20419;-67
2023/07/02 01:19:52;;;;;;;4.50;3.63;;;18.80;99.90;;;;;;5015596;28;20404;-67
2023/07/02 01:22:22;;;;;;;4.27;3.00;;;18.80;99.90;;;;;;5016144;28;20429;-67
2023/07/02 01:24:49;;;;;;;3.20;3.00;;;18.70;99.90;;;;;;5015812;28;20427;-67
2023/07/02 01:27:15;;;;;;;3.83;2.50;;;18.70;99.90;;;;;;5015835;28;20951;-67
2023/07/02 01:29:44;;;;;;;3.43;3.13;;;18.70;99.90;;;;;;5016093;28;20407;-67
2023/07/02 01:32:10;;;;;;;3.43;3.10;;;18.80;99.90;;;;;;5014983;28;20418;-67
2023/07/02 01:34:35;;;;;;;4.00;3.10;;;18.70;99.90;;;;;;5015972;28;20800;-68
2023/07/02 01:37:03;;;;;;;3.93;3.43;;;18.60;99.90;;;;;;5015641;28;20169;-67
2023/07/02 01:39:28;;;;;;;4.27;3.43;;;18.60;99.90;;;;;;5015546;28;20168;-68
2023/07/02 01:42:07;;;;;;;3.70;3.40;;;18.50;99.90;;;;;;5015515;28;20399;-68
2023/07/02 01:44:33;;;;;;;3.43;3.13;;;18.30;99.90;;;;;;5015480;28;20209;-67
2023/07/02 01:46:59;;;;;;;7.83;3.70;;;18.30;99.90;;;;;;5014897;28;20399;-67
2023/07/02 01:49:24;;;;;;;4.97;3.43;;;18.20;99.90;;;;;;5015428;28;20172;-68
2023/07/02 01:51:51;;;;;;;4.00;3.63;;;18.00;99.90;;;;;;5015415;28;20189;-68
2023/07/02 01:54:18;;;;;;;3.50;3.20;;;17.90;99.90;;;;;;5015279;28;20254;-67
2023/07/02 01:56:44;;;;;;;4.30;3.90;;;17.90;99.90;;;;;;5015747;28;20899;-68
2023/07/02 01:59:10;;;;;;;4.50;3.50;;;17.80;99.90;;;;;;5017102;28;20479;-68
2023/07/02 02:01:35;;;;;;;4.30;3.70;;;17.70;99.90;;;;;;5016247;28;20203;-68
2023/07/02 02:04:01;;;;;;;3.70;3.43;;;17.70;99.90;;;;;;5017353;28;20711;-68
2023/07/02 02:06:26;;;;;;;4.50;3.40;;;17.50;99.90;;;;;;5022448;28;20264;-68
2023/07/02 02:08:52;;;;;;;3.67;3.37;;;17.60;99.90;;;;;;5018059;28;20236;-67
2023/07/02 02:11:17;;;;;;;4.47;3.50;;;17.70;99.90;;;;;;5015542;28;20519;-67
2023/07/02 02:13:43;;;;;;;6.00;3.80;;;17.60;99.90;;;;;;5014855;28;20594;-67
2023/07/02 02:16:10;;;;;;;5.47;4.10;;;17.60;99.90;;;;;;5014917;28;20218;-67
2023/07/02 02:18:35;;;;;;;4.73;4.23;;;17.50;99.90;;;;;;5014639;28;20243;-67
2023/07/02 02:21:01;;;;;;;4.10;3.70;;;17.60;99.90;;;;;;5014684;28;20502;-67
2023/07/02 02:23:27;;;;;;;3.83;3.30;;;17.60;99.90;;;;;;5014653;28;20198;-67
2023/07/02 02:25:52;;;;;;;4.63;4.10;;;17.60;99.90;;;;;;5014840;28;20194;-67
2023/07/02 02:28:18;;;;;;;3.20;2.90;;;17.60;99.90;;;;;;5014668;28;20171;-67
2023/07/02 02:30:43;;;;;;;3.93;3.63;;;17.60;99.90;;;;;;5014367;28;20172;-67
2023/07/02 02:33:09;;;;;;;5.00;3.90;;;17.70;99.90;;;;;;5014297;28;20186;-67
2023/07/02 02:35:34;;;;;;;5.80;3.77;;;17.80;99.90;;;;;;5014945;28;20203;-67
2023/07/02 02:38:03;;;;;;;4.90;3.30;;;17.90;99.90;;;;;;5014549;28;20167;-67
2023/07/02 02:40:28;;;;;;;3.70;3.40;;;17.70;99.90;;;;;;5014747;28;20582;-67
2023/07/02 02:42:54;;;;;;;5.10;3.97;;;17.80;99.90;;;;;;5014248;28;20500;-67
2023/07/02 02:45:19;;;;;;;4.60;3.43;;;17.90;99.90;;;;;;5013983;28;20209;-67
2023/07/02 02:47:48;;;;;;;4.23;3.47;;;17.80;99.90;;;;;;5014034;28;20170;-67
2023/07/02 02:50:14;;;;;;;4.73;3.97;;;17.80;99.90;;;;;;5014184;28;20167;-67
2023/07/02 02:52:40;;;;;;;3.87;3.57;;;18.00;99.90;;;;;;5014239;28;20501;-67
2023/07/02 02:55:07;;;;;;;3.20;3.00;;;18.10;99.90;;;;;;5014100;28;20261;-67
2023/07/02 02:57:33;;;;;;;4.23;3.93;;;18.20;99.90;;;;;;5014414;28;20179;-68
2023/07/02 02:59:59;;;;;;;3.87;3.13;;;18.10;99.90;;;;;;5013866;28;20906;-67
2023/07/02 03:02:25;;;;;;;3.40;2.83;;;18.20;99.90;;;;;;5012763;28;20192;-67
2023/07/02 03:04:51;;;;;;;3.30;3.07;;;18.40;99.90;;;;;;5014154;28;20439;-66
2023/07/02 03:07:17;;;;;;;4.43;3.43;;;18.40;99.90;;;;;;5013938;28;20473;-67
2023/07/02 03:09:43;;;;;;;3.13;2.83;;;18.30;99.90;;;;;;5014220;28;20671;-67
2023/07/02 03:12:09;;;;;;;5.33;3.40;;;18.20;99.90;;;;;;5013843;28;20429;-67
2023/07/02 03:14:34;;;;;;;3.40;3.10;;;18.20;99.90;;;;;;5013725;28;20275;-67
2023/07/02 03:17:00;;;;;;;4.63;3.47;;;18.40;99.90;;;;;;5013295;28;20164;-67
2023/07/02 03:19:25;;;;;;;5.80;3.30;;;18.20;99.90;;;;;;5013369;28;20655;-67
2023/07/02 03:21:51;;;;;;;3.90;3.50;;;18.10;99.90;;;;;;5013828;28;20627;-67
2023/07/02 03:24:17;;;;;;;3.93;3.30;;;18.00;99.90;;;;;;5013499;28;20222;-67
2023/07/02 03:26:43;;;;;;;4.23;3.10;;;17.80;99.90;;;;;;5013677;28;20186;-67
2023/07/02 03:29:09;;;;;;;4.93;3.83;;;17.70;99.90;;;;;;5013302;28;20413;-67
2023/07/02 03:31:35;;;;;;;4.13;3.73;;;17.60;99.90;;;;;;5012973;28;20905;-67
2023/07/02 03:34:08;;;;;;;4.73;3.80;;;17.60;99.90;;;;;;5013824;28;20419;-67
2023/07/02 03:36:34;;;;;;;5.30;4.07;;;17.50;99.90;;;;;;5013355;28;20415;-67
2023/07/02 03:38:59;;;;;;;5.27;3.50;;;17.40;99.90;;;;;;5013446;28;20448;-67
2023/07/02 03:41:25;;;;;;;4.77;4.23;;;17.10;99.90;;;;;;5013651;28;20574;-66
2023/07/02 03:43:51;;;;;;;6.57;3.57;;;17.10;99.90;;;;;;5013594;28;20192;-67
2023/07/02 03:46:16;;;;;;;4.50;4.10;;;17.20;99.90;;;;;;5012794;28;20189;-67
2023/07/02 03:48:42;;;;;;;5.03;4.13;;;17.10;99.90;;;;;;5013531;28;20203;-66
2023/07/02 03:51:07;;;;;;;4.40;3.80;;;17.30;99.90;;;;;;5013546;28;20178;-66
2023/07/02 03:53:33;;;;;;;4.57;3.93;;;17.20;99.90;;;;;;5013279;28;20613;-67
2023/07/02 03:55:58;;;;;;;4.13;3.77;;;17.20;99.90;;;;;;5013066;28;20631;-67
2023/07/02 03:58:24;;;;;;;5.50;4.20;;;17.30;99.90;;;;;;5013215;28;20650;-67
2023/07/02 04:00:49;;;;;;;4.80;4.40;;;17.40;99.90;;;;;;5012334;28;20168;-67
2023/07/02 04:03:16;;;;;;;4.63;4.23;;;17.30;99.90;;;;;;5012894;28;20191;-67
2023/07/02 04:05:42;;;;;;;5.90;3.63;;;17.30;99.90;;;;;;5015433;28;20211;-66
2023/07/02 04:08:08;;;;;;;3.50;3.20;;;17.20;99.90;;;;;;5013085;28;20406;-66
2023/07/02 04:10:33;;;;;;;4.20;3.80;;;17.40;99.90;;;;;;5014578;28;20418;-66
2023/07/02 04:12:59;;;;;;;4.97;4.57;;;17.40;99.90;;;;;;5017122;28;20229;-66
2023/07/02 04:15:26;;;;;;;4.93;4.47;;;17.40;99.90;;;;;;5016872;28;20200;-66
2023/07/02 04:17:52;;;;;;;4.37;3.83;;;17.50;99.90;;;;;;5016793;28;20265;-66
2023/07/02 04:20:18;;;;;;;7.07;4.70;;;17.40;99.90;;;;;;5017232;28;20781;-67
2023/07/02 04:22:45;;;;;;;8.03;4.57;;;17.40;99.90;;;;;;5017124;28;20436;-67
2023/07/02 04:25:15;;;;;;;6.87;5.10;;;17.20;99.90;;;;;;5016898;28;20809;-67
2023/07/02 04:27:42;;;;;;;5.93;4.93;;;17.20;99.90;;;;;;5015662;28;20410;-69
2023/07/02 04:30:09;;;;;;;5.27;4.77;;;17.30;99.90;;;;;;5016854;28;20411;-69
2023/07/02 04:32:35;;;;;;;6.17;4.97;;;17.30;99.90;;;;;;5016449;28;20426;-69
2023/07/02 04:35:01;;;;;;;5.23;4.73;;;17.30;99.90;;;;;;5016847;28;20437;-66
2023/07/02 04:37:28;;;;;;;5.63;4.47;;;17.40;99.90;;;;;;5016907;28;20884;-66
2023/07/02 04:39:54;;;;;;;4.57;4.13;;;17.40;99.90;;;;;;5016837;28;20704;-66
2023/07/02 04:42:19;;;;;;;6.83;4.90;;;17.50;99.90;;;;;;5016683;28;20433;-66
2023/07/02 04:44:45;;;;;;;6.23;5.53;;;17.50;99.90;;;;;;5016478;28;20561;-69
2023/07/02 04:47:11;;;;;;;6.13;4.83;;;17.70;99.90;;;;;;5016088;28;20168;-69
2023/07/02 04:49:37;;;;;;;7.20;5.13;;;17.50;99.90;;;;;;5016462;28;20658;-69
2023/07/02 04:52:03;;;;;;;6.67;4.57;;;17.60;99.90;;;;;;5015150;28;20415;-68
2023/07/02 04:54:29;;;;;;;7.43;4.77;;;17.40;99.90;;;;;;5016225;28;20891;-66
2023/07/02 04:56:54;;;;;;;6.57;5.10;;;17.30;99.90;;;;;;5016590;28;20162;-67
2023/07/02 04:59:21;;;;;;;6.10;5.00;;;17.20;99.90;;;;;;5016268;28;20542;-67
2023/07/02 05:01:47;;;;;;;5.83;4.50;;;17.20;99.90;;;;;;5015756;28;20182;-67
2023/07/02 05:04:13;;;;;;;5.57;5.03;;;17.30;99.90;;;;;;5016060;28;20786;-67
2023/07/02 05:06:38;;;;;;;5.13;4.63;;;17.20;99.90;;;;;;5016281;28;20546;-67
2023/07/02 05:09:04;;;;;;;5.13;4.30;;;17.20;99.90;;;;;;5016188;28;20657;-67
2023/07/02 05:11:30;;;;;;;5.30;3.90;;;17.40;99.90;;;;;;5016227;28;20175;-67
2023/07/02 05:13:55;;;;;;;8.47;4.60;;;17.50;99.90;;;;;;5016194;28;20173;-67
2023/07/02 05:16:21;;;;;;;7.57;4.63;;;17.50;99.90;;;;;;5015560;28;20650;-67
2023/07/02 05:18:46;;;;;;;5.53;4.33;;;17.70;99.90;;;;;;5016234;28;20210;-69
2023/07/02 05:21:12;;;;;;;7.70;4.60;;;17.80;99.90;;;;;;5014136;28;20179;-69
2023/07/02 05:23:38;;;;;;;4.33;3.43;;;17.90;99.90;;;;;;5016036;28;20285;-69
2023/07/02 05:26:03;;;;;;;5.83;4.00;;;18.10;99.90;;;;;;5016128;28;20271;-68
2023/07/02 05:28:29;;;;;;;5.47;4.60;;;18.20;99.90;;;;;;5015931;28;20168;-69
2023/07/02 05:30:55;;;;;;;5.93;4.83;;;18.30;99.90;;;;;;5015803;28;20187;-68
2023/07/02 05:33:22;;;;;;;5.63;4.57;;;18.30;99.90;;;;;;5015768;28;20492;-68
2023/07/02 05:35:47;;;;;;;5.67;4.03;;;18.30;99.90;;;;;;5015993;28;20200;-68
2023/07/02 05:38:13;;;;;;;7.20;4.20;;;18.40;99.90;;;;;;5016081;28;20438;-68
2023/07/02 05:40:39;;;;;;;4.30;3.90;;;18.40;99.90;;;;;;5015911;28;20415;-68
2023/07/02 05:43:04;;;;;;;6.47;5.07;;;18.40;99.90;;;;;;5014208;28;20188;-68
2023/07/02 05:45:30;;;;;;;5.10;4.13;;;18.20;99.90;;;;;;5015619;28;20183;-68
2023/07/02 05:47:56;;;;;;;7.60;5.50;;;18.00;99.90;;;;;;5015430;28;20191;-68
2023/07/02 05:50:21;;;;;;;8.70;5.23;;;18.10;99.90;;;;;;5015223;28;20537;-68
2023/07/02 05:52:47;;;;;;;6.37;4.40;;;18.20;99.90;;;;;;5015460;28;20184;-68
2023/07/02 05:55:12;;;;;;;5.70;4.83;;;18.30;99.90;;;;;;5030042;23;20216;-69
2023/07/02 05:57:38;;;;;;;6.60;5.00;;;18.50;99.90;;;;;;5016685;28;20247;-69
2023/07/02 06:00:07;;;;;;;8.57;5.23;;;18.50;99.90;;;;;;5016454;28;20235;-69
2023/07/02 06:02:33;;;;;;;6.10;5.50;;;18.60;99.90;;;;;;5015569;28;20206;-70
2023/07/02 06:04:58;;;;;;;11.27;4.80;;;18.60;99.90;;;;;;5016592;28;20431;-69
2023/07/02 06:07:25;;;;;;;6.50;5.50;;;18.50;99.90;;;;;;5015205;28;20175;-68
2023/07/02 06:09:50;;;;;;;10.53;6.17;;;18.70;99.90;;;;;;5016722;28;20543;-69
2023/07/02 06:12:16;;;;;;;6.83;5.30;;;18.80;99.90;;;;;;5018402;28;20434;-69
2023/07/02 06:14:41;;;;;;;7.90;5.83;;;18.90;99.90;;;;;;5016673;28;20164;-70
2023/07/02 06:17:08;;;;;;;10.27;6.60;;;18.90;99.90;;;;;;5015903;28;20164;-70
2023/07/02 06:19:34;;;;;;;7.30;5.80;;;18.90;99.90;;;;;;5016282;28;20179;-69
2023/07/02 06:21:59;;;;;;;7.10;6.40;;;18.90;99.90;;;;;;5016407;28;20411;-69
2023/07/02 06:24:25;;;;;;;9.37;6.40;;;18.70;99.90;;;;;;5014312;28;20686;-70
2023/07/02 06:26:51;;;;;;;12.17;7.90;;;18.70;99.90;;;;;;5016161;28;20627;-70
2023/07/02 06:29:16;;;;;;;10.30;7.20;;;18.80;99.90;;;;;;5015539;28;20173;-70
2023/07/02 06:31:42;;;;;;;12.17;7.50;;;18.90;99.90;;;;;;5014986;28;20176;-69
2023/07/02 06:34:08;;;;;;;13.20;9.70;;;19.00;99.90;;;;;;5015263;28;20168;-70
2023/07/02 06:36:34;;;;;;;11.43;8.53;;;19.10;99.90;;;;;;5015551;28;20180;-70
2023/07/02 06:39:00;;;;;;;15.90;8.23;;;19.00;99.90;;;;;;5016045;28;20756;-70
2023/07/02 06:41:26;;;;;;;11.43;8.73;;;19.10;99.90;;;;;;5016738;28;20454;-70
2023/07/02 06:43:51;;;;;;;13.37;9.30;;;19.20;99.90;;;;;;5015811;28;20633;-70
2023/07/02 06:46:17;;;;;;;15.03;10.43;;;19.20;99.90;;;;;;5015566;28;20176;-70
2023/07/02 06:48:43;;;;;;;15.47;9.07;;;19.20;99.90;;;;;;5014967;28;20237;-69
2023/07/02 06:51:08;;;;;;;13.17;10.00;;;19.30;99.90;;;;;;5015446;28;20640;-68
2023/07/02 06:53:35;;;;;;;16.57;9.90;;;19.40;99.90;;;;;;5015793;28;20243;-69
2023/07/02 06:56:01;;;;;;;12.50;9.37;;;19.50;99.90;;;;;;5015644;28;20272;-69
2023/07/02 06:58:27;;;;;;;15.10;10.57;;;19.50;99.90;;;;;;5015688;28;20421;-69
2023/07/02 07:00:52;;;;;;;14.07;9.33;;;19.50;99.90;;;;;;5013945;28;20597;-70
2023/07/02 07:03:18;;;;;;;15.87;10.43;;;19.50;99.90;;;;;;5014846;28;20192;-71
2023/07/02 07:05:43;;;;;;;13.40;9.70;;;19.50;99.90;;;;;;5015005;28;20235;-69
2023/07/02 07:08:09;;;;;;;13.90;9.80;;;19.50;99.90;;;;;;5014695;28;20406;-70
2023/07/02 07:10:34;;;;;;;12.20;8.67;;;19.60;99.90;;;;;;5015369;28;20175;-70
2023/07/02 07:13:02;;;;;;;13.37;9.77;;;19.80;99.90;;;;;;5016334;28;20191;-69
2023/07/02 07:15:32;;;;;;;14.00;10.40;;;19.90;99.90;;;;;;5015411;28;20575;-70
2023/07/02 07:17:57;;;;;;;16.97;11.27;;;19.80;99.90;;;;;;5015776;28;20414;-70
2023/07/02 07:20:23;;;;;;;14.37;10.60;;;19.90;99.90;;;;;;5015512;28;20832;-71
2023/07/02 07:22:48;;;;;;;14.70;10.87;;;20.00;99.90;;;;;;5015044;28;20219;-70
2023/07/02 07:25:14;;;;;;;16.97;12.40;;;20.10;99.90;;;;;;5016594;28;20188;-70
2023/07/02 07:27:40;;;;;;;19.37;12.47;;;20.10;99.90;;;;;;5016557;28;20168;-70
2023/07/02 07:30:06;;;;;;;13.60;11.80;;;19.90;99.90;;;;;;5016388;28;20773;-70
2023/07/02 07:32:31;;;;;;;15.53;12.67;;;20.00;99.90;;;;;;5015905;28;20168;-70
2023/07/02 07:34:57;;;;;;;20.47;14.00;;;20.20;99.90;;;;;;5015888;28;20468;-69
2023/07/02 07:37:25;;;;;;;18.33;13.00;;;20.10;99.90;;;;;;5015617;28;20231;-71
2023/07/02 07:39:50;;;;;;;18.37;12.87;;;20.00;99.90;;;;;;5016115;28;20245;-70
2023/07/02 07:42:16;;;;;;;20.43;13.40;;;19.90;99.90;;;;;;5015796;28;20407;-71
2023/07/02 07:44:44;;;;;;;23.73;13.60;;;19.90;99.90;;;;;;5015534;28;20179;-69
2023/07/02 07:47:09;;;;;;;17.80;13.77;;;19.90;99.90;;;;;;5014156;28;20509;-69
2023/07/02 07:49:35;;;;;;;21.40;13.73;;;19.90;99.90;;;;;;5015622;28;20442;-70
2023/07/02 07:52:01;;;;;;;23.00;15.17;;;19.90;99.90;;;;;;5015042;28;20685;-69
2023/07/02 07:54:26;;;;;;;18.80;13.67;;;20.10;99.90;;;;;;5015132;28;20658;-71
2023/07/02 07:56:52;;;;;;;25.67;14.43;;;20.30;99.90;;;;;;5015123;28;20647;-70
2023/07/02 07:59:17;;;;;;;19.17;14.10;;;20.20;99.90;;;;;;5016784;28;20187;-70
2023/07/02 08:01:43;;;;;;;17.90;14.00;;;20.20;99.90;;;;;;5016070;28;20548;-70
2023/07/02 08:04:08;;;;;;;18.47;14.33;;;20.30;99.90;;;;;;5014290;28;20254;-70
2023/07/02 08:06:34;;;;;;;17.63;14.17;;;20.30;99.90;;;;;;5014944;28;20195;-69
2023/07/02 08:09:00;;;;;;;16.90;12.53;;;20.50;99.90;;;;;;5015992;28;20168;-70
2023/07/02 08:11:25;;;;;;;16.50;12.80;;;20.60;99.90;;;;;;5015196;28;20191;-71
2023/07/02 08:13:51;;;;;;;19.23;13.63;;;20.60;99.90;;;;;;5013990;28;20571;-70
2023/07/02 08:16:16;;;;;;;22.07;14.97;;;20.50;99.90;;;;;;5013474;28;20674;-71
2023/07/02 08:18:42;;;;;;;23.33;13.93;;;20.60;99.90;;;;;;5015503;28;20247;-69
2023/07/02 08:21:07;;;;;;;18.40;13.50;;;20.70;99.90;;;;;;5014209;28;20182;-70
2023/07/02 08:23:33;;;;;;;17.80;13.30;;;20.80;99.90;;;;;;5013154;28;20246;-70
2023/07/02 08:25:58;;;;;;;18.30;13.97;;;21.00;99.90;;;;;;5013156;28;20671;-71
2023/07/02 08:28:24;;;;;;;18.40;14.30;;;20.80;99.90;;;;;;5012817;28;20426;-69
2023/07/02 08:30:50;;;;;;;22.63;14.20;;;20.70;99.90;;;;;;5012828;28;20207;-69
2023/07/02 08:33:15;;;;;;;19.63;14.53;;;20.90;99.90;;;;;;5012998;28;20187;-70
2023/07/02 08:35:41;;;;;;;19.17;14.90;;;20.80;99.90;;;;;;5013220;28;20679;-69
2023/07/02 08:38:08;;;;;;;20.30;14.30;;;20.80;99.90;;;;;;5013215;28;20176;-70
2023/07/02 08:40:33;;;;;;;16.87;11.73;;;20.60;99.90;;;;;;5013394;28;20544;-69
2023/07/02 08:42:59;;;;;;;18.90;14.80;;;20.50;99.90;;;;;;5013959;28;20443;-68
2023/07/02 08:45:25;;;;;;;18.73;13.77;;;20.70;99.90;;;;;;5015243;28;20582;-68
2023/07/02 08:47:54;;;;;;;16.40;13.20;;;20.90;99.90;;;;;;5014473;28;20256;-69
2023/07/02 08:50:20;;;;;;;22.13;14.50;;;20.90;99.90;;;;;;5014952;28;20415;-68
2023/07/02 08:52:46;;;;;;;18.83;14.57;;;20.80;99.90;;;;;;5015092;28;20473;-69
2023/07/02 08:55:11;;;;;;;20.27;14.30;;;20.80;99.90;;;;;;5014536;28;20214;-69
2023/07/02 08:57:37;;;;;;;18.93;12.90;;;20.90;99.90;;;;;;5016745;28;20180;-68
2023/07/02 09:00:09;;;;;;;15.70;13.23;;;20.90;99.90;;;;;;5018227;28;20603;-68
2023/07/02 09:02:35;;;;;;;15.10;12.63;;;20.90;99.90;;;;;;5018028;28;20242;-68
2023/07/02 09:05:01;;;;;;;15.57;12.47;;;21.00;99.90;;;;;;5018682;28;20427;-69
2023/07/02 09:07:27;;;;;;;16.97;13.13;;;21.20;99.90;;;;;;5017420;28;20175;-68
2023/07/02 09:09:53;;;;;;;15.87;11.23;;;21.50;99.90;;;;;;5018464;28;20918;-68
2023/07/02 09:12:45;;;;;;;17.60;12.50;;;21.40;99.90;;;;;;5017807;28;20581;-69
2023/07/02 09:15:10;;;;;;;16.33;12.07;;;21.20;99.90;;;;;;5014466;28;20453;-70
2023/07/02 09:17:37;;;;;;;18.50;10.97;;;21.20;99.90;;;;;;5018248;28;20849;-69
2023/07/02 09:20:06;;;;;;;15.13;12.07;;;21.30;99.90;;;;;;5017564;28;20176;-70
2023/07/02 09:22:32;;;;;;;18.20;12.40;;;21.30;99.90;;;;;;5018168;28;20411;-70
2023/07/02 09:24:59;;;;;;;15.67;12.03;;;21.20;99.90;;;;;;5017960;28;20554;-69
2023/07/02 09:27:39;;;;;;;14.27;10.77;;;21.30;99.90;;;;;;5017505;28;20255;-68
2023/07/02 09:30:09;;;;;;;16.37;11.83;;;21.50;99.90;;;;;;5017342;28;20429;-69
2023/07/02 09:32:35;;;;;;;16.00;11.87;;;21.80;99.90;;;;;;5016765;28;20885;-69
2023/07/02 09:35:01;;;;;;;17.43;11.90;;;21.90;99.90;;;;;;5017276;28;20434;-69
2023/07/02 09:37:28;;;;;;;16.77;13.40;;;21.90;99.70;;;;;;5016914;28;20231;-69
2023/07/02 09:39:56;;;;;;;17.10;12.67;;;21.90;99.80;;;;;;5016525;28;20476;-69
2023/07/02 09:42:22;;;;;;;15.03;12.33;;;22.00;99.70;;;;;;5016067;28;20403;-69
2023/07/02 09:44:51;;;;;;;15.53;12.00;;;22.20;99.60;;;;;;5016650;28;20497;-69
2023/07/02 09:47:18;;;;;;;19.17;12.80;;;22.20;98.90;;;;;;5016278;28;20403;-69
2023/07/02 09:50:05;;;;;;;14.37;11.37;;;22.30;98.50;;;;;;5016733;28;20765;-69
2023/07/02 09:52:33;;;;;;;15.20;11.57;;;22.60;99.30;;;;;;5016270;28;20383;-69
2023/07/02 09:54:58;;;;;;;16.37;12.67;;;22.80;98.20;;;;;;5016557;28;20820;-69
2023/07/02 09:57:24;;;;;;;18.23;12.27;;;22.70;98.20;;;;;;5017019;28;20395;-69
2023/07/02 09:59:50;;;;;;;13.50;11.50;;;22.70;98.00;;;;;;5015560;28;20168;-69
2023/07/02 10:02:16;;;;;;;16.83;11.80;;;22.70;98.10;;;;;;5013383;28;20247;-69
2023/07/02 10:04:46;;;;;;;17.30;11.80;;;22.60;98.60;;;;;;5017640;28;20654;-70
2023/07/02 10:07:13;;;;;;;15.07;12.13;;;23.10;98.60;;;;;;5016171;28;20410;-68
2023/07/02 10:09:41;;;;;;;15.87;12.90;;;23.60;98.10;;;;;;5015759;28;20414;-68
2023/07/02 10:12:21;;;;;;;16.10;13.33;;;23.60;97.20;;;;;;5015941;28;20399;-69
2023/07/02 10:14:48;;;;;;;15.90;12.73;;;23.30;97.10;;;;;;5015056;28;20523;-69
2023/07/02 10:17:31;;;;;;;15.43;12.73;;;22.90;97.70;;;;;;5014899;28;20918;-68
2023/07/02 10:20:00;;;;;;;16.27;12.77;;;22.60;98.30;;;;;;5015844;28;20403;-68
2023/07/02 10:22:26;;;;;;;14.47;12.77;;;22.80;98.30;;;;;;5015745;28;20399;-70
2023/07/02 10:25:03;;;;;;;16.90;14.30;;;23.20;98.10;;;;;;5015949;28;20467;-68
2023/07/02 10:27:42;;;;;;;20.33;12.70;;;23.50;97.00;;;;;;5015696;28;20394;-69
2023/07/02 10:30:09;;;;;;;14.73;13.10;;;24.00;95.80;;;;;;5015423;28;20386;-68
2023/07/02 10:32:37;;;;;;;17.70;13.77;;;24.00;95.60;;;;;;5015123;28;20494;-69
2023/07/02 10:35:25;;;;;;;15.83;14.00;;;24.20;94.50;;;;;;5015371;28;20426;-69
2023/07/02 10:37:51;;;;;;;18.73;15.57;;;24.00;94.70;;;;;;5015605;28;20882;-68
2023/07/02 10:40:16;;;;;;;16.63;14.07;;;23.70;95.20;;;;;;5015502;28;20405;-70
2023/07/02 10:42:52;;;;;;;17.50;14.40;;;23.50;95.40;;;;;;5014815;28;20191;-69
2023/07/02 10:45:19;;;;;;;17.60;14.80;;;23.80;95.80;;;;;;5014911;28;20614;-69
2023/07/02 10:47:46;;;;;;;17.00;13.60;;;24.60;95.90;;;;;;5014634;28;20490;-70
2023/07/02 10:50:20;;;;;;;20.43;14.60;;;25.20;93.80;;;;;;5014937;28;20403;-69
2023/07/02 10:52:46;;;;;;;19.23;14.00;;;25.20;93.10;;;;;;5014776;28;20772;-69
2023/07/02 10:55:20;;;;;;;15.63;14.03;;;24.60;93.80;;;;;;5014860;28;20645;-69
2023/07/02 10:57:45;;;;;;;17.33;14.77;;;24.40;94.30;;;;;;5014440;28;20832;-70
2023/07/02 11:00:11;;;;;;;16.00;12.13;;;24.10;94.40;;;;;;5015199;28;20399;-70
2023/07/02 11:02:37;;;;;;;15.80;14.07;;;23.70;95.30;;;;;;5013888;28;20191;-69
2023/07/02 11:05:14;;;;;;;14.93;13.27;;;23.60;95.00;;;;;;5015344;28;20670;-70
2023/07/02 11:07:41;;;;;;;18.27;14.57;;;23.90;94.60;;;;;;5015221;28;20382;-69
2023/07/02 11:10:08;;;;;;;16.30;14.03;;;24.30;93.50;;;;;;5014750;28;20402;-70
2023/07/02 11:12:34;;;;;;;17.13;13.70;;;24.20;93.40;;;;;;5014671;28;20463;-68
2023/07/02 11:15:09;;;;;;;15.60;13.90;;;24.00;93.90;;;;;;5014524;28;20426;-69
2023/07/02 11:17:35;;;;;;;16.70;14.20;;;24.00;93.30;;;;;;5012704;28;20175;-70
2023/07/02 11:20:00;;;;;;;16.70;13.90;;;24.00;93.60;;;;;;5013966;28;20773;-70
2023/07/02 11:22:33;;;;;;;17.90;14.30;;;24.40;93.80;;;;;;5014202;28;20179;-69
2023/07/02 11:25:10;;;;;;;15.60;13.60;;;24.60;92.40;;;;;;5014928;28;20184;-70
2023/07/02 11:27:35;;;;;;;16.03;14.23;;;24.90;92.40;;;;;;5014007;28;20882;-69
2023/07/02 11:30:01;;;;;;;17.03;13.50;;;24.70;92.80;;;;;;5014357;28;20410;-70
2023/07/02 11:32:27;;;;;;;17.40;13.73;;;24.60;92.80;;;;;;5013679;28;20184;-69
2023/07/02 11:34:54;;;;;;;17.23;13.47;;;24.30;92.80;;;;;;5014902;28;20741;-69
2023/07/02 11:37:19;;;;;;;15.03;13.27;;;24.60;92.10;;;;;;5014370;28;20164;-69
2023/07/02 11:39:45;;;;;;;15.83;13.20;;;26.30;90.40;;;;;;5013753;28;20403;-70
2023/07/02 11:42:10;;;;;;;15.80;13.00;;;28.30;85.70;;;;;;5013786;28;20168;-70
2023/07/02 11:44:36;;;;;;;15.73;13.60;;;28.50;79.50;;;;;;5013880;28;20199;-69
2023/07/02 11:47:02;;;;;;;17.73;12.90;;;29.00;75.40;;;;;;5014165;28;20214;-69
2023/07/02 11:49:28;;;;;;;17.50;13.33;;;29.90;70.00;;;;;;5013664;28;20182;-69
2023/07/02 11:51:53;;;;;;;14.90;12.23;;;30.10;68.50;;;;;;5013582;28;20431;-69
2023/07/02 11:54:19;;;;;;;14.40;12.90;;;30.60;67.20;;;;;;5013734;28;20627;-70
2023/07/02 11:56:45;;;;;;;14.50;12.30;;;31.10;63.90;;;;;;5027248;23;20235;-69
2023/07/02 11:59:11;;;;;;;15.47;13.87;;;30.20;65.00;;;;;;5012639;28;20550;-70
2023/07/02 12:01:36;;;;;;;15.17;13.23;;;28.90;66.40;;;;;;5012630;28;20180;-69
2023/07/02 12:04:02;;;;;;;17.13;13.23;;;27.20;70.60;;;;;;5012615;28;20196;-69
2023/07/02 12:06:28;;;;;;;15.67;13.87;;;25.80;73.20;;;;;;5012819;28;20183;-69
2023/07/02 12:08:53;;;;;;;19.47;13.77;;;25.70;75.10;;;;;;5012796;28;20208;-69
2023/07/02 12:11:19;;;;;;;15.53;13.80;;;25.80;74.50;;;;;;5013147;28;20171;-70
2023/07/02 12:13:45;;;;;;;18.87;14.33;;;25.70;73.60;;;;;;5014998;28;20622;-69
2023/07/02 12:16:10;;;;;;;17.07;12.97;;;25.50;73.70;;;;;;5012465;28;20192;-70
2023/07/02 12:18:36;;;;;;;15.07;13.30;;;24.90;74.50;;;;;;5011568;28;20207;-70
2023/07/02 12:21:01;;;;;;;15.33;12.80;;;25.20;75.70;;;;;;5012652;28;20555;-70
2023/07/02 12:23:27;;;;;;;14.87;12.27;;;26.60;72.30;;;;;;5013109;28;20226;-69
2023/07/02 12:25:52;;;;;;;16.37;14.50;;;27.60;69.00;;;;;;5012530;28;20191;-70
2023/07/02 12:28:18;;;;;;;17.80;13.47;;;27.40;69.10;;;;;;5012540;28;20690;-69
2023/07/02 12:30:43;;;;;;;15.30;13.73;;;27.80;68.60;;;;;;5012603;28;20195;-69
2023/07/02 12:33:09;;;;;;;15.07;13.57;;;28.90;67.60;;;;;;5015971;28;20590;-69
2023/07/02 12:35:35;;;;;;;14.00;11.73;;;29.30;64.20;;;;;;5016324;28;20222;-69